Weathercam Coevorden Meer informatie Weathercam Coevorden



Het weer levert geen direct gevaar op.    Er zijn geen waarschuwingen afgegeven.

Select another period ( hide this area )

Eenheden Periode Custom range Directly to
Metrisch Engels Beide
Dagelijkse Wekelijkse Maandelijkse Jaarlijkse
use both date-selectors for a custom range
previous Dag
With this date

WeatherUnderground graphs for this period ( click here )


Dagelijkse Samenvatting Dinsdag 22 oktober 2019
Tijd Temp. ( °C ) Dew pt. ( °C ) Wind ( km/h ) van Windvlaag ( km/h ) Luchtdruk ( hPa ) Humid.( % ) Rainrate ( cm )
Hoog12,4 9,7 18,7 Zuiden ( 288/901 ) 18,7 1025,3 88 -
Gemiddeld11,7 9,0 7,3 Zuiden #38/124 7,5 1023,3 84 -
Laag11,0 8,6 -   0,0 1022,2 78 -
Dagelijkse Tabular details for Dinsdag 22 oktober 2019
Tijd Temp. ( °C ) Dew pt. ( °C ) Wind ( km/h ) van Windvlaag ( km/h ) Luchtdruk ( hPa ) Humid.( % ) Rainrate ( cm )
00:01 12,4 8,7 8,2 ZZO 8,2 1022,2 78 -
00:05 12,4 8,7 9,7 ZZO 9,7 1022,2 78 -
00:11 12,4 8,7 7,2 ZZO 7,2 1022,2 78 -
00:15 12,4 8,7 8,2 ZZO 8,2 1022,2 78 -
00:21 12,4 8,7 7,9 ZO 7,9 1022,2 78 -
00:25 12,4 8,7 5,0 OZO 5,0 1022,2 78 -
00:31 12,4 8,7 8,7 ZO 8,7 1022,2 78 -
00:35 12,4 8,7 7,2 ZO 7,2 1022,6 78 -
00:41 12,4 8,7 9,0 ZO 9,0 1022,6 78 -
00:45 12,4 8,7 6,9 ZO 6,9 1022,6 78 -
00:51 12,4 8,7 11,1 ZZO 11,1 1022,6 78 -
00:55 12,3 8,6 6,4 ZZW 6,4 1022,2 78 -
01:01 12,3 8,6 12,2 Zuiden 12,2 1022,2 78 -
01:05 12,3 8,8 2,9 Zuiden 4,7 1022,2 79 -
01:11 12,2 8,7 5,8 ZZO 5,8 1022,2 79 -
01:15 12,2 8,7 4,7 Zuiden 4,7 1022,9 79 -
01:21 12,1 8,6 4,7 Zuiden 4,7 1022,9 79 -
01:25 12,1 8,6 6,9 ZZO 6,9 1022,9 79 -
01:31 12,0 8,7 3,2 ZZO 3,2 1022,9 80 -
01:35 12,0 8,7 2,1 OZO 2,1 1022,9 80 -
01:41 12,0 8,7 6,1 ZZO 6,1 1022,9 80 -
01:45 12,0 8,7 8,7 ZO 8,7 1022,9 80 -
01:51 12,0 8,7 10,1 ZO 10,1 1022,9 80 -
01:55 12,1 8,8 8,7 ZO 8,7 1023,2 80 -
02:01 12,1 8,9 10,8 Zuiden 10,8 1023,2 81 -
02:05 12,1 8,9 11,6 ZO 11,6 1023,2 81 -
02:11 12,1 8,9 7,6 Zuiden 7,6 1023,2 81 -
02:15 12,0 8,8 9,3 Zuiden 9,3 1022,9 81 -
02:21 12,1 8,9 6,9 ZO 6,9 1022,9 81 -
02:25 12,1 9,1 7,9 Zuiden 7,9 1022,9 82 -
02:31 12,1 9,1 5,8 Zuiden 5,8 1022,9 82 -
02:35 12,0 9,0 11,1 ZO 11,1 1022,9 82 -
02:41 12,0 9,0 7,9 ZZO 7,9 1022,9 82 -
02:45 12,0 9,0 8,7 Zuiden 8,7 1022,9 82 -
02:51 12,0 9,0 10,8 Zuiden 10,8 1022,9 82 -
02:55 12,0 9,0 18,7 Zuiden 18,7 1023,2 82 -
03:01 12,1 9,1 10,1 Zuiden 10,1 1023,2 82 -
03:05 12,0 9,0 8,2 ZZO 8,2 1023,2 82 -
03:11 12,0 9,0 5,8 ZZW 5,8 1023,2 82 -
03:15 12,0 9,0 6,9 Oosten 6,9 1022,6 82 -
03:21 11,9 8,9 12,6 Zuiden 12,6 1022,6 82 -
03:25 11,8 8,8 8,7 ZO 9,0 1022,6 82 -
03:31 11,8 9,0 9,3 ZO 9,3 1022,6 83 -
03:35 11,8 9,0 5,5 Zuiden 5,5 1022,6 83 -
03:41 11,7 8,9 5,8 ZO 5,8 1022,6 83 -
03:45 11,7 8,9 7,6 Zuiden 7,6 1022,6 83 -
03:51 11,6 8,8 11,6 ZO 11,6 1022,6 83 -
03:55 11,6 8,8 7,6 ZZO 7,6 1022,6 83 -
04:01 11,6 8,8 5,8 ZZO 5,8 1022,6 83 -
04:05 11,6 8,8 3,2 OZO 3,2 1022,6 83 -
04:11 11,6 8,8 5,8 ZO 8,7 1022,6 83 -
04:15 11,6 8,8 10,1 ZZO 10,1 1022,9 83 -
04:21 11,5 8,7 4,3 ZO 4,3 1022,9 83 -
04:25 11,5 8,9 11,1 ZO 11,1 1022,9 84 -
04:31 11,5 8,9 8,2 ZO 8,2 1022,9 84 -
04:35 11,5 8,9 3,2 Zuiden 3,2 1022,6 84 -
04:41 11,5 8,9 5,8 Zuiden 5,8 1022,6 84 -
04:45 11,5 8,9 5,5 ZZO 5,5 1022,6 84 -
04:51 11,5 8,9 7,2 Zuiden 7,2 1022,6 84 -
04:55 11,5 8,9 9,7 ZZO 9,7 1022,6 84 -
05:01 11,5 8,9 7,6 OZO 7,6 1022,6 84 -
05:05 11,5 8,9 8,2 ZO 8,2 1022,6 84 -
05:11 11,5 9,1 9,0 ZZO 9,0 1022,6 85 -
05:15 11,5 9,1 5,8 Zuiden 5,8 1023,2 85 -
05:21 11,5 9,1 10,1 Zuiden 10,1 1023,2 85 -
05:25 11,4 9,0 9,7 ZZO 9,7 1023,2 85 -
05:31 11,5 9,1 9,3 Zuiden 9,3 1023,2 85 -
05:35 11,5 9,1 9,3 ZZO 9,3 1023,2 85 -
05:41 11,5 9,1 2,9 ZZW 7,2 1023,2 85 -
05:45 11,5 9,1 10,1 ZZW 10,1 1023,2 85 -
05:51 11,6 9,2 6,9 Zuiden 6,9 1023,2 85 -
05:55 11,6 9,2 3,5 Zuiden 3,5 1023,2 85 -
06:01 11,6 9,2 6,1 ZZO 6,1 1023,2 85 -
06:05 11,6 9,2 5,0 ZZO 5,0 1023,2 85 -
06:11 11,6 9,3 7,6 ZO 7,6 1023,2 86 -
06:15 11,6 9,2 10,1 ZZO 10,1 1023,2 85 -
06:21 11,5 9,1 4,7 Zuiden 4,7 1023,2 85 -
06:25 11,4 9,0 5,8 ZW 5,8 1023,2 85 -
06:31 11,4 9,1   Kalm   1023,2 86 -
06:35 11,3 8,9 3,2 ZZO 3,2 1023,2 85 -
06:41 11,3 9,0 2,9 OZO 2,9 1023,2 86 -
06:46 11,2 8,9 7,2 ZO 7,2 1023,2 86 -
06:50 11,3 9,0 8,7 ZO 8,7 1023,2 86 -
06:57 11,3 9,2 11,1 Zuiden 11,1 1023,2 87 -
07:01 11,3 9,0 2,9 WZW 2,9 1023,2 86 -
07:05 11,3 9,0 14,0 ZW 14,0 1023,2 86 -
07:11 11,4 9,3 3,2 ZO 3,2 1023,2 87 -
07:15 11,4 9,1 8,2 ZW 8,2 1023,2 86 -
07:21 11,4 9,1 3,5 Zuiden 3,5 1023,2 86 -
07:25 11,3 9,0 6,1 Zuiden 6,1 1023,2 86 -
07:31 11,3 9,0   Kalm   1023,2 86 -
07:35 11,3 9,2 7,2 ZZO 7,2 1023,2 87 -
07:41 11,2 9,1 5,5 Zuiden 5,5 1023,2 87 -
07:45 11,2 9,1 7,2 ZZO 7,2 1023,2 87 -
07:51 11,2 9,1 6,9 ZO 6,9 1023,2 87 -
07:55 11,1 9,0 11,1 ZZO 11,1 1023,6 87 -
08:01 11,1 9,0 6,9 Zuiden 6,9 1023,6 87 -
08:05 11,1 9,0 4,3 ZZO 4,3 1023,6 87 -
08:11 11,1 9,0 5,0 Zuiden 5,0 1023,6 87 -
08:15 11,0 8,9 5,8 Zuiden 5,8 1023,9 87 -
08:21 11,0 8,9 2,9 ZO 2,9 1023,9 87 -
08:25 11,0 8,9 6,9 ZO 6,9 1023,9 87 -
08:31 11,0 9,1 6,1 ZO 6,1 1023,9 88 -
08:35 11,0 9,1 9,3 ZO 9,3 1024,3 88 -
08:41 11,0 9,1 5,8 ZO 5,8 1024,3 88 -
08:45 11,0 9,1 2,6 Zuiden 2,6 1024,3 88 -
08:51 11,0 9,1 5,8 ZZO 5,8 1024,3 88 -
08:55 11,1 9,2 5,8 ZO 5,8 1025,3 88 -
09:01 11,1 9,2 12,2 Zuiden 12,2 1025,3 88 -
09:05 11,1 9,2 10,5 Zuiden 10,5 1025,3 88 -
09:11 11,2 9,3 9,0 OZO 9,0 1025,3 88 -
09:15 11,2 9,3 10,1 Zuiden 10,1 1024,9 88 -
09:21 11,3 9,4 6,1 ZO 6,1 1024,9 88 -
09:25 11,4 9,5 5,0 OZO 7,9 1024,9 88 -
09:31 11,4 9,5 7,2 Zuiden 7,2 1024,9 88 -
09:35 11,4 9,5 8,7 ZZO 8,7 1024,9 88 -
09:41 11,4 9,3 8,2 ZW 8,2 1024,9 87 -
09:45 11,4 9,3 5,8 ONO 5,8 1024,9 87 -
09:51 11,5 9,4 5,5 Zuiden 5,5 1024,9 87 -
09:55 11,5 9,4 5,0 OZO 5,0 1025,3 87 -
10:01 11,6 9,5 11,1 ZO 11,1 1025,3 87 -
10:05 11,7 9,6 8,2 ZZO 8,2 1025,3 87 -
10:11 11,8 9,7 6,1 ZO 18,7 1025,3 87 -
10:15 11,8 9,7 6,4 ZZO 6,4 1025,3 87 -
Dagelijkse Samenvatting Dinsdag 22 oktober 2019
Tijd Temp. ( °C ) Dew pt. ( °C ) Wind ( km/h ) van Windvlaag ( km/h ) Luchtdruk ( hPa ) Humid.( % ) Rainrate ( cm )
Hoog12,4 9,7 18,7 Zuiden ( 288/901 ) 18,7 1025,3 88 -
Gemiddeld11,7 9,0 7,3 Zuiden #38/124 7,5 1023,3 84 -
Laag11,0 8,6 -   0,0 1022,2 78 -
Dagelijkse Tabular details for Dinsdag 22 oktober 2019
Tijd Temp. ( °C ) Dew pt. ( °C ) Wind ( km/h ) van Windvlaag ( km/h ) Luchtdruk ( hPa ) Humid.( % ) Rainrate ( cm )
00:01 12,4 8,7 8,2 ZZO 8,2 1022,2 78 -
00:05 12,4 8,7 9,7 ZZO 9,7 1022,2 78 -
00:11 12,4 8,7 7,2 ZZO 7,2 1022,2 78 -
00:15 12,4 8,7 8,2 ZZO 8,2 1022,2 78 -
00:21 12,4 8,7 7,9 ZO 7,9 1022,2 78 -
00:25 12,4 8,7 5,0 OZO 5,0 1022,2 78 -
00:31 12,4 8,7 8,7 ZO 8,7 1022,2 78 -
00:35 12,4 8,7 7,2 ZO 7,2 1022,6 78 -
00:41 12,4 8,7 9,0 ZO 9,0 1022,6 78 -
00:45 12,4 8,7 6,9 ZO 6,9 1022,6 78 -
00:51 12,4 8,7 11,1 ZZO 11,1 1022,6 78 -
00:55 12,3 8,6 6,4 ZZW 6,4 1022,2 78 -
01:01 12,3 8,6 12,2 Zuiden 12,2 1022,2 78 -
01:05 12,3 8,8 2,9 Zuiden 4,7 1022,2 79 -
01:11 12,2 8,7 5,8 ZZO 5,8 1022,2 79 -
01:15 12,2 8,7 4,7 Zuiden 4,7 1022,9 79 -
01:21 12,1 8,6 4,7 Zuiden 4,7 1022,9 79 -
01:25 12,1 8,6 6,9 ZZO 6,9 1022,9 79 -
01:31 12,0 8,7 3,2 ZZO 3,2 1022,9 80 -
01:35 12,0 8,7 2,1 OZO 2,1 1022,9 80 -
01:41 12,0 8,7 6,1 ZZO 6,1 1022,9 80 -
01:45 12,0 8,7 8,7 ZO 8,7 1022,9 80 -
01:51 12,0 8,7 10,1 ZO 10,1 1022,9 80 -
01:55 12,1 8,8 8,7 ZO 8,7 1023,2 80 -
02:01 12,1 8,9 10,8 Zuiden 10,8 1023,2 81 -
02:05 12,1 8,9 11,6 ZO 11,6 1023,2 81 -
02:11 12,1 8,9 7,6 Zuiden 7,6 1023,2 81 -
02:15 12,0 8,8 9,3 Zuiden 9,3 1022,9 81 -
02:21 12,1 8,9 6,9 ZO 6,9 1022,9 81 -
02:25 12,1 9,1 7,9 Zuiden 7,9 1022,9 82 -
02:31 12,1 9,1 5,8 Zuiden 5,8 1022,9 82 -
02:35 12,0 9,0 11,1 ZO 11,1 1022,9 82 -
02:41 12,0 9,0 7,9 ZZO 7,9 1022,9 82 -
02:45 12,0 9,0 8,7 Zuiden 8,7 1022,9 82 -
02:51 12,0 9,0 10,8 Zuiden 10,8 1022,9 82 -
02:55 12,0 9,0 18,7 Zuiden 18,7 1023,2 82 -
03:01 12,1 9,1 10,1 Zuiden 10,1 1023,2 82 -
03:05 12,0 9,0 8,2 ZZO 8,2 1023,2 82 -
03:11 12,0 9,0 5,8 ZZW 5,8 1023,2 82 -
03:15 12,0 9,0 6,9 Oosten 6,9 1022,6 82 -
03:21 11,9 8,9 12,6 Zuiden 12,6 1022,6 82 -
03:25 11,8 8,8 8,7 ZO 9,0 1022,6 82 -
03:31 11,8 9,0 9,3 ZO 9,3 1022,6 83 -
03:35 11,8 9,0 5,5 Zuiden 5,5 1022,6 83 -
03:41 11,7 8,9 5,8 ZO 5,8 1022,6 83 -
03:45 11,7 8,9 7,6 Zuiden 7,6 1022,6 83 -
03:51 11,6 8,8 11,6 ZO 11,6 1022,6 83 -
03:55 11,6 8,8 7,6 ZZO 7,6 1022,6 83 -
04:01 11,6 8,8 5,8 ZZO 5,8 1022,6 83 -
04:05 11,6 8,8 3,2 OZO 3,2 1022,6 83 -
04:11 11,6 8,8 5,8 ZO 8,7 1022,6 83 -
04:15 11,6 8,8 10,1 ZZO 10,1 1022,9 83 -
04:21 11,5 8,7 4,3 ZO 4,3 1022,9 83 -
04:25 11,5 8,9 11,1 ZO 11,1 1022,9 84 -
04:31 11,5 8,9 8,2 ZO 8,2 1022,9 84 -
04:35 11,5 8,9 3,2 Zuiden 3,2 1022,6 84 -
04:41 11,5 8,9 5,8 Zuiden 5,8 1022,6 84 -
04:45 11,5 8,9 5,5 ZZO 5,5 1022,6 84 -
04:51 11,5 8,9 7,2 Zuiden 7,2 1022,6 84 -
04:55 11,5 8,9 9,7 ZZO 9,7 1022,6 84 -
05:01 11,5 8,9 7,6 OZO 7,6 1022,6 84 -
05:05 11,5 8,9 8,2 ZO 8,2 1022,6 84 -
05:11 11,5 9,1 9,0 ZZO 9,0 1022,6 85 -
05:15 11,5 9,1 5,8 Zuiden 5,8 1023,2 85 -
05:21 11,5 9,1 10,1 Zuiden 10,1 1023,2 85 -
05:25 11,4 9,0 9,7 ZZO 9,7 1023,2 85 -
05:31 11,5 9,1 9,3 Zuiden 9,3 1023,2 85 -
05:35 11,5 9,1 9,3 ZZO 9,3 1023,2 85 -
05:41 11,5 9,1 2,9 ZZW 7,2 1023,2 85 -
05:45 11,5 9,1 10,1 ZZW 10,1 1023,2 85 -
05:51 11,6 9,2 6,9 Zuiden 6,9 1023,2 85 -
05:55 11,6 9,2 3,5 Zuiden 3,5 1023,2 85 -
06:01 11,6 9,2 6,1 ZZO 6,1 1023,2 85 -
06:05 11,6 9,2 5,0 ZZO 5,0 1023,2 85 -
06:11 11,6 9,3 7,6 ZO 7,6 1023,2 86 -
06:15 11,6 9,2 10,1 ZZO 10,1 1023,2 85 -
06:21 11,5 9,1 4,7 Zuiden 4,7 1023,2 85 -
06:25 11,4 9,0 5,8 ZW 5,8 1023,2 85 -
06:31 11,4 9,1   Kalm   1023,2 86 -
06:35 11,3 8,9 3,2 ZZO 3,2 1023,2 85 -
06:41 11,3 9,0 2,9 OZO 2,9 1023,2 86 -
06:46 11,2 8,9 7,2 ZO 7,2 1023,2 86 -
06:50 11,3 9,0 8,7 ZO 8,7 1023,2 86 -
06:57 11,3 9,2 11,1 Zuiden 11,1 1023,2 87 -
07:01 11,3 9,0 2,9 WZW 2,9 1023,2 86 -
07:05 11,3 9,0 14,0 ZW 14,0 1023,2 86 -
07:11 11,4 9,3 3,2 ZO 3,2 1023,2 87 -
07:15 11,4 9,1 8,2 ZW 8,2 1023,2 86 -
07:21 11,4 9,1 3,5 Zuiden 3,5 1023,2 86 -
07:25 11,3 9,0 6,1 Zuiden 6,1 1023,2 86 -
07:31 11,3 9,0   Kalm   1023,2 86 -
07:35 11,3 9,2 7,2 ZZO 7,2 1023,2 87 -
07:41 11,2 9,1 5,5 Zuiden 5,5 1023,2 87 -
07:45 11,2 9,1 7,2 ZZO 7,2 1023,2 87 -
07:51 11,2 9,1 6,9 ZO 6,9 1023,2 87 -
07:55 11,1 9,0 11,1 ZZO 11,1 1023,6 87 -
08:01 11,1 9,0 6,9 Zuiden 6,9 1023,6 87 -
08:05 11,1 9,0 4,3 ZZO 4,3 1023,6 87 -
08:11 11,1 9,0 5,0 Zuiden 5,0 1023,6 87 -
08:15 11,0 8,9 5,8 Zuiden 5,8 1023,9 87 -
08:21 11,0 8,9 2,9 ZO 2,9 1023,9 87 -
08:25 11,0 8,9 6,9 ZO 6,9 1023,9 87 -
08:31 11,0 9,1 6,1 ZO 6,1 1023,9 88 -
08:35 11,0 9,1 9,3 ZO 9,3 1024,3 88 -
08:41 11,0 9,1 5,8 ZO 5,8 1024,3 88 -
08:45 11,0 9,1 2,6 Zuiden 2,6 1024,3 88 -
08:51 11,0 9,1 5,8 ZZO 5,8 1024,3 88 -
08:55 11,1 9,2 5,8 ZO 5,8 1025,3 88 -
09:01 11,1 9,2 12,2 Zuiden 12,2 1025,3 88 -
09:05 11,1 9,2 10,5 Zuiden 10,5 1025,3 88 -
09:11 11,2 9,3 9,0 OZO 9,0 1025,3 88 -
09:15 11,2 9,3 10,1 Zuiden 10,1 1024,9 88 -
09:21 11,3 9,4 6,1 ZO 6,1 1024,9 88 -
09:25 11,4 9,5 5,0 OZO 7,9 1024,9 88 -
09:31 11,4 9,5 7,2 Zuiden 7,2 1024,9 88 -
09:35 11,4 9,5 8,7 ZZO 8,7 1024,9 88 -
09:41 11,4 9,3 8,2 ZW 8,2 1024,9 87 -
09:45 11,4 9,3 5,8 ONO 5,8 1024,9 87 -
09:51 11,5 9,4 5,5 Zuiden 5,5 1024,9 87 -
09:55 11,5 9,4 5,0 OZO 5,0 1025,3 87 -
10:01 11,6 9,5 11,1 ZO 11,1 1025,3 87 -
10:05 11,7 9,6 8,2 ZZO 8,2 1025,3 87 -
10:11 11,8 9,7 6,1 ZO 18,7 1025,3 87 -
10:15 11,8 9,7 6,4 ZZO 6,4 1025,3 87 -

Download your copy of this data-set  here

Our weather-data as stored at Weather Underground. Script ontwikkeld door Jim McMurry. Aangepast voor de template door Leuven-Template.eu